Time;durP1;ratioP1;P1;durP2;ratioP2;P2;SDS_P1;SDS_P2;PMS_P1;PMS_P2;Temp;Humidity;BMP_temperature;BMP_pressure;BME280_temperature;BME280_humidity;BME280_pressure;Samples;Min_cycle;Max_cycle;Signal;HPM_P1;HPM_P2
2024/01/08 00:02:08;;;;;;;15.02;9.10;;;;;;;;;;5023115;28;20063;-54
2024/01/08 00:04:34;;;;;;;18.40;9.50;;;;;;;;;;5019689;28;20436;-57
2024/01/08 00:06:59;;;;;;;17.83;10.55;;;;;;;;;;5022180;28;20039;-55
2024/01/08 00:09:24;;;;;;;18.75;11.05;;;;;;;;;;5020108;28;20032;-57
2024/01/08 00:11:50;;;;;;;20.67;11.95;;;;;;;;;;5018807;28;20630;-55
2024/01/08 00:14:15;;;;;;;21.67;11.77;;;;;;;;;;5020957;28;22051;-57
2024/01/08 00:16:40;;;;;;;20.98;12.52;;;;;;;;;;5022935;28;20021;-55
2024/01/08 00:19:06;;;;;;;23.30;12.30;;;;;;;;;;5020558;28;20025;-61
2024/01/08 00:21:31;;;;;;;19.13;12.07;;;;;;;;;;5021113;28;20024;-55
2024/01/08 00:23:57;;;;;;;22.75;12.48;;;;;;;;;;5034687;28;20056;-56
2024/01/08 00:26:24;;;;;;;20.27;12.05;;;;;;;;;;5020887;28;20029;-58
2024/01/08 00:28:49;;;;;;;22.75;12.68;;;;;;;;;;5026817;28;20032;-55
2024/01/08 00:31:15;;;;;;;19.10;11.30;;;;;;;;;;5026464;28;20405;-56
2024/01/08 00:33:40;;;;;;;21.48;11.80;;;;;;;;;;5022526;28;20036;-55
2024/01/08 00:36:05;;;;;;;20.92;11.82;;;;;;;;;;5034709;28;20035;-56
2024/01/08 00:38:30;;;;;;;18.50;10.63;;;;;;;;;;5029220;28;20047;-53
2024/01/08 00:40:56;;;;;;;17.98;11.23;;;;;;;;;;5018157;28;20327;-57
2024/01/08 00:43:21;;;;;;;20.33;10.85;;;;;;;;;;5022508;28;20044;-56
2024/01/08 00:45:46;;;;;;;21.50;12.05;;;;;;;;;;5023062;28;20500;-56
2024/01/08 00:48:11;;;;;;;25.95;12.07;;;;;;;;;;5021347;28;20055;-56
2024/01/08 00:50:37;;;;;;;20.40;11.65;;;;;;;;;;5019558;28;20033;-55
2024/01/08 00:53:02;;;;;;;21.00;12.00;;;;;;;;;;5022379;28;20037;-54
2024/01/08 00:55:28;;;;;;;21.90;12.60;;;;;;;;;;5019201;28;20545;-57
2024/01/08 00:57:54;;;;;;;18.98;11.75;;;;;;;;;;5023284;28;20028;-56
2024/01/08 01:00:20;;;;;;;21.92;12.55;;;;;;;;;;5020173;28;20449;-56
2024/01/08 01:02:45;;;;;;;21.77;12.35;;;;;;;;;;5019680;28;20035;-56
2024/01/08 01:05:10;;;;;;;21.98;11.30;;;;;;;;;;5018841;28;20911;-56
2024/01/08 01:07:35;;;;;;;21.08;11.52;;;;;;;;;;5020391;28;20417;-55
2024/01/08 01:10:01;;;;;;;23.77;12.40;;;;;;;;;;5018984;28;20039;-54
2024/01/08 01:12:26;;;;;;;20.67;11.52;;;;;;;;;;5019346;28;20132;-59
2024/01/08 01:14:51;;;;;;;21.63;12.00;;;;;;;;;;5020775;28;20040;-56
2024/01/08 01:17:17;;;;;;;22.85;12.05;;;;;;;;;;5022466;28;20135;-58
2024/01/08 01:19:42;;;;;;;21.13;12.40;;;;;;;;;;5019052;28;20369;-53
2024/01/08 01:22:07;;;;;;;22.88;11.45;;;;;;;;;;5020432;28;20040;-54
2024/01/08 01:24:32;;;;;;;23.08;11.65;;;;;;;;;;5030601;28;20033;-56
2024/01/08 01:26:58;;;;;;;21.95;12.68;;;;;;;;;;5024201;28;20032;-57
2024/01/08 01:29:23;;;;;;;24.45;13.05;;;;;;;;;;5017366;28;20041;-55
2024/01/08 01:31:48;;;;;;;24.73;12.98;;;;;;;;;;5020171;28;20025;-56
2024/01/08 01:34:15;;;;;;;22.25;13.00;;;;;;;;;;5019871;28;20544;-54
2024/01/08 01:36:41;;;;;;;24.35;13.40;;;;;;;;;;5019446;28;20727;-56
2024/01/08 01:39:06;;;;;;;21.73;12.35;;;;;;;;;;5022602;28;20159;-59
2024/01/08 01:41:32;;;;;;;22.65;12.48;;;;;;;;;;5018767;28;20432;-56
2024/01/08 01:43:57;;;;;;;18.80;11.63;;;;;;;;;;5020066;28;20478;-54
2024/01/08 01:46:24;;;;;;;20.35;11.45;;;;;;;;;;5026498;28;20173;-56
2024/01/08 01:48:50;;;;;;;23.30;12.15;;;;;;;;;;5019404;28;20995;-56
2024/01/08 01:51:16;;;;;;;22.27;11.70;;;;;;;;;;5017594;28;20035;-58
2024/01/08 01:53:41;;;;;;;22.92;12.15;;;;;;;;;;5020403;28;20036;-56
2024/01/08 01:56:07;;;;;;;24.80;11.45;;;;;;;;;;5017608;28;20082;-56
2024/01/08 01:58:33;;;;;;;22.90;11.88;;;;;;;;;;5019837;28;20091;-58
2024/01/08 02:00:58;;;;;;;19.17;11.40;;;;;;;;;;5017817;28;20568;-58
2024/01/08 02:03:23;;;;;;;22.20;11.27;;;;;;;;;;5040442;28;20043;-57
2024/01/08 02:05:49;;;;;;;22.05;11.68;;;;;;;;;;5037891;28;20048;-58
2024/01/08 02:08:15;;;;;;;22.40;12.35;;;;;;;;;;5039432;28;20808;-56
2024/01/08 02:10:42;;;;;;;18.10;10.45;;;;;;;;;;5037713;28;20037;-58
2024/01/08 02:13:07;;;;;;;20.58;11.55;;;;;;;;;;5038104;28;20071;-55
2024/01/08 02:15:33;;;;;;;18.25;10.35;;;;;;;;;;5038231;28;20032;-57
2024/01/08 02:17:58;;;;;;;21.98;11.32;;;;;;;;;;5039678;28;20067;-56
2024/01/08 02:20:23;;;;;;;21.10;10.63;;;;;;;;;;5043733;28;20097;-58
2024/01/08 02:22:48;;;;;;;18.80;11.15;;;;;;;;;;5026403;28;20043;-55
2024/01/08 02:25:14;;;;;;;16.83;10.10;;;;;;;;;;5038699;28;20169;-57
2024/01/08 02:27:39;;;;;;;19.58;10.15;;;;;;;;;;5040360;28;20036;-57
2024/01/08 02:30:05;;;;;;;22.77;10.57;;;;;;;;;;5037691;28;20044;-56
2024/01/08 02:32:30;;;;;;;21.25;11.13;;;;;;;;;;5040639;28;20028;-56
2024/01/08 02:34:55;;;;;;;19.70;11.30;;;;;;;;;;5023251;28;20107;-58
2024/01/08 02:37:21;;;;;;;21.80;11.20;;;;;;;;;;5021040;28;20756;-56
2024/01/08 02:39:46;;;;;;;18.05;11.05;;;;;;;;;;5017088;28;20095;-57
2024/01/08 02:42:13;;;;;;;21.13;11.75;;;;;;;;;;5027708;28;20209;-55
2024/01/08 02:44:39;;;;;;;21.73;12.15;;;;;;;;;;5017752;28;20757;-57
2024/01/08 02:47:05;;;;;;;20.60;11.90;;;;;;;;;;5024755;28;20037;-56
2024/01/08 02:49:30;;;;;;;23.55;12.07;;;;;;;;;;5017445;28;20641;-57
2024/01/08 02:51:55;;;;;;;20.73;11.73;;;;;;;;;;5020237;28;20146;-56
2024/01/08 02:54:21;;;;;;;15.40;9.95;;;;;;;;;;5017651;28;20037;-57
2024/01/08 02:56:46;;;;;;;21.20;11.88;;;;;;;;;;5016941;28;20036;-57
2024/01/08 02:59:11;;;;;;;19.50;12.18;;;;;;;;;;5019161;28;20417;-54
2024/01/08 03:01:38;;;;;;;22.98;12.30;;;;;;;;;;5020962;28;20032;-56
2024/01/08 03:04:03;;;;;;;21.95;11.77;;;;;;;;;;5021579;28;20052;-57
2024/01/08 03:06:29;;;;;;;23.90;12.48;;;;;;;;;;5017737;28;20468;-56
2024/01/08 03:08:55;;;;;;;19.92;11.32;;;;;;;;;;5018324;28;20036;-56
2024/01/08 03:11:21;;;;;;;19.48;11.25;;;;;;;;;;5016157;28;20453;-58
2024/01/08 03:13:46;;;;;;;21.08;11.40;;;;;;;;;;5021698;28;20041;-55
2024/01/08 03:16:11;;;;;;;20.48;12.45;;;;;;;;;;5016265;28;20029;-56
2024/01/08 03:18:37;;;;;;;21.60;12.30;;;;;;;;;;5020195;28;20119;-53
2024/01/08 03:21:03;;;;;;;23.30;12.05;;;;;;;;;;5027703;28;20032;-58
2024/01/08 03:23:28;;;;;;;23.75;12.75;;;;;;;;;;5020848;28;20467;-57
2024/01/08 03:25:53;;;;;;;22.42;13.85;;;;;;;;;;5021116;28;20040;-54
2024/01/08 03:28:18;;;;;;;29.17;13.65;;;;;;;;;;5021040;28;20787;-58
2024/01/08 03:30:44;;;;;;;27.95;14.02;;;;;;;;;;5021699;28;20199;-56
2024/01/08 03:33:09;;;;;;;27.60;13.60;;;;;;;;;;5021670;28;20016;-54
2024/01/08 03:35:34;;;;;;;26.27;14.55;;;;;;;;;;5020866;28;20802;-52
2024/01/08 03:38:00;;;;;;;26.80;14.40;;;;;;;;;;5022011;28;20144;-56
2024/01/08 03:40:25;;;;;;;25.58;13.32;;;;;;;;;;5019610;28;20039;-53
2024/01/08 03:42:50;;;;;;;25.92;13.80;;;;;;;;;;5020455;28;20424;-56
2024/01/08 03:45:16;;;;;;;24.85;13.13;;;;;;;;;;5024043;28;20033;-56
2024/01/08 03:47:41;;;;;;;26.40;13.63;;;;;;;;;;5023559;28;20045;-58
2024/01/08 03:50:07;;;;;;;24.85;13.50;;;;;;;;;;5020934;28;20032;-56
2024/01/08 03:52:32;;;;;;;28.80;14.02;;;;;;;;;;5020498;28;20117;-55
2024/01/08 03:54:58;;;;;;;27.85;14.90;;;;;;;;;;5019366;28;20055;-59
2024/01/08 03:57:23;;;;;;;26.00;14.32;;;;;;;;;;5020779;28;20564;-55
2024/01/08 03:59:48;;;;;;;25.40;13.93;;;;;;;;;;5019994;28;20576;-55
2024/01/08 04:02:13;;;;;;;26.83;14.20;;;;;;;;;;5027409;28;20220;-58
2024/01/08 04:04:40;;;;;;;26.55;14.80;;;;;;;;;;5019602;28;20487;-52
2024/01/08 04:07:05;;;;;;;25.80;14.60;;;;;;;;;;5021938;28;20160;-54
2024/01/08 04:09:30;;;;;;;28.50;15.38;;;;;;;;;;5019866;28;21156;-57
2024/01/08 04:11:55;;;;;;;30.55;15.40;;;;;;;;;;5019558;28;20032;-56
2024/01/08 04:14:21;;;;;;;26.80;14.48;;;;;;;;;;5019664;28;20119;-56
2024/01/08 04:16:46;;;;;;;30.02;15.52;;;;;;;;;;5019950;28;20371;-57
2024/01/08 04:19:11;;;;;;;28.65;15.43;;;;;;;;;;5021352;28;20044;-55
2024/01/08 04:21:36;;;;;;;30.95;16.98;;;;;;;;;;5031820;28;20028;-56
2024/01/08 04:24:02;;;;;;;31.27;16.10;;;;;;;;;;5020500;28;20071;-56
2024/01/08 04:26:28;;;;;;;30.75;16.58;;;;;;;;;;5020279;28;20596;-57
2024/01/08 04:28:53;;;;;;;29.90;15.55;;;;;;;;;;5021333;28;20029;-56
2024/01/08 04:31:21;;;;;;;31.77;16.65;;;;;;;;;;5018796;28;20127;-55
2024/01/08 04:33:48;;;;;;;23.50;12.80;;;;;;;;;;5022296;28;20060;-57
2024/01/08 04:36:14;;;;;;;33.55;18.05;;;;;;;;;;5018710;28;20395;-55
2024/01/08 04:38:39;;;;;;;32.08;16.73;;;;;;;;;;5029595;28;20028;-57
2024/01/08 04:41:04;;;;;;;32.90;17.10;;;;;;;;;;5017756;28;20059;-55
2024/01/08 04:43:30;;;;;;;40.55;17.55;;;;;;;;;;5022997;28;20657;-54
2024/01/08 04:45:55;;;;;;;39.10;17.33;;;;;;;;;;5028166;28;20043;-58
2024/01/08 04:48:20;;;;;;;37.35;18.58;;;;;;;;;;5019736;28;20181;-53
2024/01/08 04:50:45;;;;;;;28.10;16.23;;;;;;;;;;5018157;28;20719;-55
2024/01/08 04:53:11;;;;;;;32.55;16.63;;;;;;;;;;5020074;28;20041;-52
2024/01/08 04:55:36;;;;;;;29.58;15.35;;;;;;;;;;5020200;28;20052;-54
2024/01/08 04:58:01;;;;;;;33.90;15.00;;;;;;;;;;5021163;28;20050;-54
2024/01/08 05:00:26;;;;;;;25.30;14.15;;;;;;;;;;5018512;28;20145;-53
2024/01/08 05:02:52;;;;;;;29.23;15.40;;;;;;;;;;5021274;28;20172;-51
2024/01/08 05:05:17;;;;;;;28.92;16.23;;;;;;;;;;5019598;28;20032;-55
2024/01/08 05:07:43;;;;;;;29.88;15.32;;;;;;;;;;5018796;28;20416;-54
2024/01/08 05:10:08;;;;;;;31.02;15.45;;;;;;;;;;5016948;28;20597;-55
2024/01/08 05:12:33;;;;;;;27.17;14.35;;;;;;;;;;5020011;28;20048;-56
2024/01/08 05:14:59;;;;;;;30.02;13.43;;;;;;;;;;5019127;28;20622;-58
2024/01/08 05:17:24;;;;;;;18.98;9.43;;;;;;;;;;5022100;28;20032;-57
2024/01/08 05:19:51;;;;;;;15.73;7.68;;;;;;;;;;5018490;28;20424;-57
2024/01/08 05:22:16;;;;;;;14.13;8.00;;;;;;;;;;5025502;28;20032;-55
2024/01/08 05:24:42;;;;;;;17.05;8.93;;;;;;;;;;5018299;28;20033;-57
2024/01/08 05:27:07;;;;;;;14.27;8.00;;;;;;;;;;5020435;28;20039;-54
2024/01/08 05:29:32;;;;;;;17.35;8.52;;;;;;;;;;5030601;28;20042;-56
2024/01/08 05:31:57;;;;;;;15.88;8.38;;;;;;;;;;5021202;28;20526;-56
2024/01/08 05:34:23;;;;;;;15.27;8.02;;;;;;;;;;5018243;28;20031;-58
2024/01/08 05:36:48;;;;;;;18.33;8.43;;;;;;;;;;5026498;28;20521;-52
2024/01/08 05:39:16;;;;;;;17.65;8.75;;;;;;;;;;5030424;28;20025;-53
2024/01/08 05:41:41;;;;;;;17.70;8.20;;;;;;;;;;5017942;28;20727;-56
2024/01/08 05:44:06;;;;;;;18.77;8.25;;;;;;;;;;5019046;28;20051;-58
2024/01/08 05:46:32;;;;;;;14.43;8.02;;;;;;;;;;5024740;28;20032;-53
2024/01/08 05:48:57;;;;;;;15.05;8.07;;;;;;;;;;5019046;28;20115;-58
2024/01/08 05:51:27;;;;;;;15.90;7.43;;;;;;;;;;5025193;28;20017;-57
2024/01/08 05:53:52;;;;;;;11.52;6.72;;;;;;;;;;5018715;28;20481;-56
2024/01/08 05:56:17;;;;;;;18.70;7.32;;;;;;;;;;5018636;28;20166;-55
2024/01/08 05:58:42;;;;;;;18.05;7.65;;;;;;;;;;5020270;28;20608;-55
2024/01/08 06:01:08;;;;;;;16.25;7.57;;;;;;;;;;5019454;28;20028;-57
2024/01/08 06:03:33;;;;;;;14.35;7.65;;;;;;;;;;5020499;28;20834;-57
2024/01/08 06:05:58;;;;;;;14.73;7.45;;;;;;;;;;5024776;28;20530;-56
2024/01/08 06:08:23;;;;;;;17.30;7.35;;;;;;;;;;5020682;28;20021;-54
2024/01/08 06:10:49;;;;;;;12.18;7.10;;;;;;;;;;5017988;28;20133;-58
2024/01/08 06:13:14;;;;;;;15.85;7.30;;;;;;;;;;5020180;28;20127;-58
2024/01/08 06:15:39;;;;;;;17.98;7.97;;;;;;;;;;5017936;28;20477;-54
2024/01/08 06:18:06;;;;;;;17.08;8.32;;;;;;;;;;5022746;28;20403;-55
2024/01/08 06:20:31;;;;;;;15.95;8.20;;;;;;;;;;5022650;28;20032;-58
2024/01/08 06:22:56;;;;;;;16.55;8.45;;;;;;;;;;5022614;28;20762;-57
2024/01/08 06:25:22;;;;;;;16.35;8.23;;;;;;;;;;5016582;28;20029;-57
2024/01/08 06:27:47;;;;;;;15.80;7.47;;;;;;;;;;5028754;28;20071;-57
2024/01/08 06:30:12;;;;;;;17.75;9.10;;;;;;;;;;5020541;28;20154;-57
2024/01/08 06:32:38;;;;;;;21.30;8.98;;;;;;;;;;5023789;28;20067;-57
2024/01/08 06:35:03;;;;;;;17.38;9.18;;;;;;;;;;5020596;28;20025;-57
2024/01/08 06:37:28;;;;;;;17.83;8.93;;;;;;;;;;5020117;28;20781;-56
2024/01/08 06:39:54;;;;;;;20.50;9.48;;;;;;;;;;5018688;28;20025;-54
2024/01/08 06:42:19;;;;;;;18.05;7.90;;;;;;;;;;5018375;28;20284;-59
2024/01/08 06:44:44;;;;;;;15.35;7.57;;;;;;;;;;5016971;28;20473;-55
2024/01/08 06:47:10;;;;;;;18.73;8.70;;;;;;;;;;5026009;28;20593;-57
2024/01/08 06:49:35;;;;;;;16.90;8.27;;;;;;;;;;5025885;28;20405;-54
2024/01/08 06:52:00;;;;;;;15.32;6.05;;;;;;;;;;5030827;28;20037;-56
2024/01/08 06:54:25;;;;;;;20.08;9.85;;;;;;;;;;5033284;28;20072;-57
2024/01/08 06:56:51;;;;;;;17.75;9.07;;;;;;;;;;5037708;28;20119;-56
2024/01/08 06:59:16;;;;;;;15.38;8.68;;;;;;;;;;5032489;28;21504;-52
2024/01/08 07:01:42;;;;;;;17.35;8.15;;;;;;;;;;5032027;28;20115;-54
2024/01/08 07:04:07;;;;;;;18.45;9.27;;;;;;;;;;5029256;28;20749;-57
2024/01/08 07:06:32;;;;;;;16.67;8.27;;;;;;;;;;5029870;28;20060;-57
2024/01/08 07:08:57;;;;;;;15.88;7.75;;;;;;;;;;5050062;28;20057;-50
2024/01/08 07:11:23;;;;;;;17.02;8.23;;;;;;;;;;5033950;28;20163;-48
2024/01/08 07:13:52;;;;;;;18.63;8.10;;;;;;;;;;5028985;28;20035;-52
2024/01/08 07:16:17;;;;;;;15.93;6.45;;;;;;;;;;5029852;28;20049;-59
2024/01/08 07:18:43;;;;;;;16.83;8.05;;;;;;;;;;5033785;28;20113;-57
2024/01/08 07:21:09;;;;;;;14.98;6.90;;;;;;;;;;5032646;28;20955;-49
2024/01/08 07:23:35;;;;;;;17.73;8.48;;;;;;;;;;5032110;28;20480;-54
2024/01/08 07:26:00;;;;;;;18.02;7.90;;;;;;;;;;5033962;28;20044;-50
2024/01/08 07:28:26;;;;;;;14.38;6.78;;;;;;;;;;5038082;28;21183;-47
2024/01/08 07:30:52;;;;;;;18.40;8.18;;;;;;;;;;5032129;28;20036;-54
2024/01/08 07:33:17;;;;;;;123.43;65.15;;;;;;;;;;5033754;28;20415;-50
2024/01/08 07:35:42;;;;;;;38.35;10.82;;;;;;;;;;5033421;28;20470;-52
2024/01/08 07:38:07;;;;;;;13.63;6.68;;;;;;;;;;5050150;28;20139;-50
2024/01/08 07:40:33;;;;;;;19.63;8.13;;;;;;;;;;5031416;28;20110;-51
2024/01/08 07:45:33;;;;;;;14.82;6.90;;;;;;;;;;5037188;28;20384;-55
2024/01/08 07:47:59;;;;;;;18.52;7.70;;;;;;;;;;5029730;28;20043;-50
2024/01/08 07:50:24;;;;;;;13.98;7.45;;;;;;;;;;5030882;28;20033;-48
2024/01/08 07:52:51;;;;;;;14.60;7.50;;;;;;;;;;5060208;28;20678;-47
2024/01/08 07:55:16;;;;;;;16.65;7.47;;;;;;;;;;5024805;28;20441;-52
2024/01/08 07:57:42;;;;;;;19.60;8.98;;;;;;;;;;5019700;28;20341;-57
2024/01/08 08:00:11;;;;;;;13.52;6.65;;;;;;;;;;5015979;28;20032;-51
2024/01/08 08:02:36;;;;;;;16.85;7.45;;;;;;;;;;5040452;28;20040;-53
2024/01/08 08:05:02;;;;;;;12.80;6.85;;;;;;;;;;5022563;28;20468;-49
2024/01/08 08:07:28;;;;;;;13.93;7.22;;;;;;;;;;5034222;28;20119;-53
2024/01/08 08:09:54;;;;;;;15.50;6.63;;;;;;;;;;5027207;28;20704;-60
2024/01/08 08:12:19;;;;;;;11.82;6.50;;;;;;;;;;5026781;28;20262;-52
2024/01/08 08:14:47;;;;;;;15.68;7.07;;;;;;;;;;5026679;28;20034;-58
2024/01/08 08:17:13;;;;;;;13.50;6.65;;;;;;;;;;5029806;28;20115;-58
2024/01/08 08:19:40;;;;;;;13.35;6.40;;;;;;;;;;5027075;28;20573;-57
2024/01/08 08:22:05;;;;;;;15.25;7.85;;;;;;;;;;5028741;28;20402;-54
2024/01/08 08:24:30;;;;;;;14.25;7.10;;;;;;;;;;5064271;28;20052;-53
2024/01/08 08:26:55;;;;;;;17.23;7.78;;;;;;;;;;5028736;28;20052;-55
2024/01/08 08:29:21;;;;;;;15.07;7.57;;;;;;;;;;5030674;28;20077;-54
2024/01/08 08:31:46;;;;;;;17.88;7.95;;;;;;;;;;5027492;28;20584;-54
2024/01/08 08:34:11;;;;;;;14.30;7.07;;;;;;;;;;5028497;28;20119;-54
2024/01/08 08:36:41;;;;;;;16.75;7.40;;;;;;;;;;5031218;28;20034;-57
2024/01/08 08:39:06;;;;;;;16.17;8.18;;;;;;;;;;5025636;28;20033;-56
2024/01/08 08:41:31;;;;;;;15.80;7.47;;;;;;;;;;5026594;28;20078;-56
2024/01/08 08:43:57;;;;;;;13.85;7.00;;;;;;;;;;5022256;28;20529;-55
2024/01/08 08:46:22;;;;;;;20.38;6.90;;;;;;;;;;5031962;28;20044;-58
2024/01/08 08:48:47;;;;;;;13.73;6.80;;;;;;;;;;5024936;28;20578;-55
2024/01/08 08:51:13;;;;;;;16.02;7.05;;;;;;;;;;5027654;28;20025;-57
2024/01/08 08:53:38;;;;;;;14.02;6.93;;;;;;;;;;5027609;28;20120;-58
2024/01/08 08:56:04;;;;;;;14.40;7.13;;;;;;;;;;5019163;28;20608;-57
2024/01/08 08:58:30;;;;;;;14.18;7.05;;;;;;;;;;5014986;28;20041;-60
2024/01/08 09:00:56;;;;;;;16.67;6.80;;;;;;;;;;5011336;28;20033;-58
2024/01/08 09:03:21;;;;;;;11.68;5.85;;;;;;;;;;5014155;28;20072;-56
2024/01/08 09:05:46;;;;;;;13.85;6.68;;;;;;;;;;5012842;28;20662;-56
2024/01/08 09:08:12;;;;;;;12.82;6.30;;;;;;;;;;5013052;28;20025;-59
2024/01/08 09:10:37;;;;;;;14.95;7.20;;;;;;;;;;5013804;28;20533;-57
2024/01/08 09:13:02;;;;;;;17.88;7.47;;;;;;;;;;5014141;28;20067;-59
2024/01/08 09:15:28;;;;;;;14.43;6.80;;;;;;;;;;5003979;28;20715;-56
2024/01/08 09:17:53;;;;;;;14.95;7.40;;;;;;;;;;5017522;28;20512;-55
2024/01/08 09:20:18;;;;;;;14.85;7.40;;;;;;;;;;5014129;28;20056;-56
2024/01/08 09:22:43;;;;;;;16.77;8.18;;;;;;;;;;5013534;28;20481;-57
2024/01/08 09:25:09;;;;;;;17.10;8.10;;;;;;;;;;5011882;28;20482;-53
2024/01/08 09:27:34;;;;;;;16.55;7.28;;;;;;;;;;5014367;28;20678;-54
2024/01/08 09:30:00;;;;;;;14.25;5.70;;;;;;;;;;5012591;28;20414;-54
2024/01/08 09:32:25;;;;;;;11.65;5.40;;;;;;;;;;5012044;28;20030;-54
2024/01/08 09:34:51;;;;;;;13.43;5.47;;;;;;;;;;5011771;28;20461;-55
2024/01/08 09:37:16;;;;;;;12.13;4.93;;;;;;;;;;5012767;28;20103;-54
2024/01/08 09:39:41;;;;;;;14.43;6.70;;;;;;;;;;5051445;28;20066;-57
2024/01/08 09:42:07;;;;;;;11.38;5.97;;;;;;;;;;5052494;28;20492;-58
2024/01/08 09:44:34;;;;;;;14.75;5.97;;;;;;;;;;5047319;28;20060;-58
2024/01/08 09:47:01;;;;;;;11.70;5.22;;;;;;;;;;5056013;28;20043;-57
2024/01/08 09:49:29;;;;;;;12.18;5.70;;;;;;;;;;5048536;28;20047;-57
2024/01/08 09:51:55;;;;;;;9.85;5.32;;;;;;;;;;5038284;28;20538;-57
2024/01/08 09:54:21;;;;;;;11.38;5.45;;;;;;;;;;5048364;28;20031;-51
2024/01/08 09:56:50;;;;;;;12.40;5.45;;;;;;;;;;5046719;28;20435;-54
2024/01/08 09:59:16;;;;;;;12.02;5.60;;;;;;;;;;5052625;28;20130;-56
2024/01/08 10:01:41;;;;;;;10.80;5.10;;;;;;;;;;5047962;28;20050;-54
2024/01/08 10:04:07;;;;;;;11.38;5.40;;;;;;;;;;5051167;28;20072;-57
2024/01/08 10:06:32;;;;;;;13.52;6.18;;;;;;;;;;5041596;28;20400;-57
2024/01/08 10:08:57;;;;;;;10.60;5.78;;;;;;;;;;5065592;28;20040;-61
2024/01/08 10:11:23;;;;;;;13.90;5.70;;;;;;;;;;5031236;28;20035;-57
2024/01/08 10:13:48;;;;;;;13.38;5.28;;;;;;;;;;5024661;28;20595;-57
2024/01/08 10:16:14;;;;;;;12.82;5.65;;;;;;;;;;5013427;28;20021;-57
2024/01/08 10:18:39;;;;;;;14.23;5.45;;;;;;;;;;5008280;28;20029;-56
2024/01/08 10:21:09;;;;;;;12.07;5.20;;;;;;;;;;5010979;28;20115;-52
2024/01/08 10:23:34;;;;;;;11.70;5.30;;;;;;;;;;5014361;28;20076;-58
2024/01/08 10:26:00;;;;;;;14.95;6.00;;;;;;;;;;5010835;28;20549;-59
2024/01/08 10:28:25;;;;;;;11.93;5.28;;;;;;;;;;5016926;28;20398;-59
2024/01/08 10:30:52;;;;;;;12.93;5.05;;;;;;;;;;5009436;28;20029;-55
2024/01/08 10:33:17;;;;;;;14.10;6.53;;;;;;;;;;5010475;28;21185;-57
2024/01/08 10:35:43;;;;;;;8.48;4.95;;;;;;;;;;5008854;28;20029;-60
2024/01/08 10:38:09;;;;;;;14.75;5.90;;;;;;;;;;5013741;28;20124;-59
2024/01/08 10:40:35;;;;;;;14.32;5.15;;;;;;;;;;5014154;28;20171;-59
2024/01/08 10:43:00;;;;;;;12.63;5.25;;;;;;;;;;5010426;28;20116;-56
2024/01/08 10:45:25;;;;;;;17.52;6.28;;;;;;;;;;5020273;28;20140;-58
2024/01/08 10:48:06;;;;;;;8.75;4.60;;;;;;;;;;5010269;28;20033;-57
2024/01/08 10:50:33;;;;;;;11.90;5.80;;;;;;;;;;5009128;28;20017;-58
2024/01/08 10:52:58;;;;;;;10.90;5.43;;;;;;;;;;5013739;28;20076;-53
2024/01/08 10:55:24;;;;;;;10.73;5.30;;;;;;;;;;5011671;28;20099;-57
2024/01/08 10:58:03;;;;;;;12.80;5.60;;;;;;;;;;5013875;28;20155;-51
2024/01/08 11:00:29;;;;;;;12.63;5.57;;;;;;;;;;5012626;28;20125;-53
2024/01/08 11:02:55;;;;;;;11.82;5.18;;;;;;;;;;5011461;28;20048;-55
2024/01/08 11:05:21;;;;;;;10.68;5.65;;;;;;;;;;5011683;28;20037;-53
2024/01/08 11:07:50;;;;;;;13.68;5.32;;;;;;;;;;5015264;28;20060;-52
2024/01/08 11:10:15;;;;;;;;;;;;;;;;;;5008897;28;20521;-55
2024/01/08 11:12:41;;;;;;;13.18;6.53;;;;;;;;;;5012315;28;20420;-51
2024/01/08 11:15:06;;;;;;;17.40;6.13;;;;;;;;;;5010675;28;20052;-60
2024/01/08 11:17:32;;;;;;;12.02;5.22;;;;;;;;;;5013993;28;20029;-53
2024/01/08 11:19:59;;;;;;;15.40;5.50;;;;;;;;;;5011347;28;20041;-49
2024/01/08 11:22:24;;;;;;;11.95;5.95;;;;;;;;;;5011483;28;20033;-51
2024/01/08 11:24:50;;;;;;;13.63;5.88;;;;;;;;;;5008076;28;20083;-52
2024/01/08 11:27:16;;;;;;;14.15;5.65;;;;;;;;;;5010771;28;20492;-53
2024/01/08 11:29:43;;;;;;;10.48;5.72;;;;;;;;;;5008671;28;20669;-53
2024/01/08 11:32:20;;;;;;;11.43;5.53;;;;;;;;;;5014589;28;20108;-48
2024/01/08 11:35:03;;;;;;;14.77;5.75;;;;;;;;;;5041111;28;20033;-50
2024/01/08 11:37:31;;;;;;;10.25;5.60;;;;;;;;;;5011294;28;20230;-48
2024/01/08 11:39:57;;;;;;;10.45;5.53;;;;;;;;;;5009724;28;20021;-49
2024/01/08 11:42:23;;;;;;;12.70;5.63;;;;;;;;;;5005875;28;20037;-59
2024/01/08 11:44:49;;;;;;;11.30;5.57;;;;;;;;;;4997012;28;20132;-49
2024/01/08 11:47:14;;;;;;;12.05;5.35;;;;;;;;;;5007320;28;20079;-57
2024/01/08 11:49:40;;;;;;;10.95;5.32;;;;;;;;;;5001887;28;20490;-55
2024/01/08 11:52:07;;;;;;;11.38;5.40;;;;;;;;;;5004944;28;21086;-55
2024/01/08 11:54:32;;;;;;;12.23;5.72;;;;;;;;;;5021116;28;20369;-57
2024/01/08 11:56:57;;;;;;;15.43;5.63;;;;;;;;;;5022754;28;20855;-57
2024/01/08 11:59:30;;;;;;;16.88;5.40;;;;;;;;;;5010187;28;20118;-57
2024/01/08 12:01:55;;;;;;;12.25;5.10;;;;;;;;;;5024010;28;20039;-55
2024/01/08 12:04:20;;;;;;;15.23;6.07;;;;;;;;;;5012912;28;20694;-57
2024/01/08 12:06:45;;;;;;;15.10;5.43;;;;;;;;;;5011190;28;20801;-58
2024/01/08 12:09:11;;;;;;;15.10;5.78;;;;;;;;;;5012094;28;20228;-59
2024/01/08 12:11:36;;;;;;;11.73;5.85;;;;;;;;;;5007476;28;20603;-58
2024/01/08 12:14:02;;;;;;;11.63;5.60;;;;;;;;;;5011943;28;20643;-57
2024/01/08 12:16:28;;;;;;;12.18;6.10;;;;;;;;;;5012852;28;20282;-58
2024/01/08 12:18:53;;;;;;;12.95;5.65;;;;;;;;;;5011615;28;20368;-57
2024/01/08 12:21:19;;;;;;;8.73;4.70;;;;;;;;;;5013481;28;20029;-58
2024/01/08 12:23:44;;;;;;;13.35;5.43;;;;;;;;;;5010658;28;20041;-59
2024/01/08 12:26:09;;;;;;;12.13;5.50;;;;;;;;;;5009996;28;20037;-60
2024/01/08 12:28:35;;;;;;;14.60;5.88;;;;;;;;;;5011877;28;20094;-60
2024/01/08 12:31:01;;;;;;;14.05;6.50;;;;;;;;;;5007939;28;20033;-60
2024/01/08 12:33:26;;;;;;;10.50;5.68;;;;;;;;;;5014303;28;20033;-61
2024/01/08 12:35:54;;;;;;;13.02;5.78;;;;;;;;;;5022110;28;20096;-58
2024/01/08 12:38:20;;;;;;;12.23;5.65;;;;;;;;;;5014029;28;20112;-59
2024/01/08 12:40:45;;;;;;;9.93;5.35;;;;;;;;;;5010524;28;20114;-56
2024/01/08 12:43:11;;;;;;;12.30;5.82;;;;;;;;;;5013016;28;20056;-59
2024/01/08 12:45:43;;;;;;;14.68;6.10;;;;;;;;;;5030849;28;20041;-57
2024/01/08 12:48:08;;;;;;;12.73;6.35;;;;;;;;;;5013499;28;20033;-57
2024/01/08 12:50:33;;;;;;;13.35;5.53;;;;;;;;;;5006402;28;20176;-55
2024/01/08 12:52:58;;;;;;;10.77;5.15;;;;;;;;;;5007051;28;20045;-60
2024/01/08 12:55:24;;;;;;;12.38;5.93;;;;;;;;;;5005268;28;20444;-58
2024/01/08 12:57:49;;;;;;;11.68;5.85;;;;;;;;;;5012685;28;20026;-61
2024/01/08 13:00:14;;;;;;;11.93;6.15;;;;;;;;;;5010887;28;21903;-55
2024/01/08 13:02:41;;;;;;;10.77;5.57;;;;;;;;;;5005843;28;20029;-57
2024/01/08 13:05:06;;;;;;;9.07;5.72;;;;;;;;;;5008085;28;20755;-56
2024/01/08 13:07:32;;;;;;;11.80;5.72;;;;;;;;;;5010321;28;20751;-59
2024/01/08 13:09:57;;;;;;;18.08;7.35;;;;;;;;;;5004747;28;20055;-57
2024/01/08 13:12:22;;;;;;;11.23;5.82;;;;;;;;;;5008058;28;20033;-53
2024/01/08 13:14:48;;;;;;;13.75;6.03;;;;;;;;;;5008858;28;20648;-56
2024/01/08 13:17:13;;;;;;;12.00;6.25;;;;;;;;;;5013139;28;20496;-58
2024/01/08 13:19:38;;;;;;;11.38;5.68;;;;;;;;;;5017962;28;20141;-57
2024/01/08 13:22:04;;;;;;;12.95;6.20;;;;;;;;;;5015473;28;20488;-53
2024/01/08 13:24:29;;;;;;;14.32;6.13;;;;;;;;;;5013238;28;20044;-56
2024/01/08 13:26:55;;;;;;;12.02;5.72;;;;;;;;;;5013007;28;20111;-54
2024/01/08 13:29:20;;;;;;;11.82;6.25;;;;;;;;;;5014871;28;20033;-53
2024/01/08 13:31:45;;;;;;;13.68;5.78;;;;;;;;;;5013972;28;20498;-53
2024/01/08 13:34:11;;;;;;;12.77;6.20;;;;;;;;;;5014714;28;20029;-52
2024/01/08 13:36:37;;;;;;;10.82;5.28;;;;;;;;;;5013035;28;20119;-50
2024/01/08 13:39:05;;;;;;;13.50;6.70;;;;;;;;;;5044452;28;20057;-52
2024/01/08 13:41:33;;;;;;;14.82;5.90;;;;;;;;;;5013021;28;20435;-53
2024/01/08 13:44:00;;;;;;;13.18;6.35;;;;;;;;;;5013887;28;20053;-53
2024/01/08 13:46:27;;;;;;;11.63;5.32;;;;;;;;;;5017019;28;20112;-49
2024/01/08 13:48:52;;;;;;;13.75;6.78;;;;;;;;;;5012629;28;20030;-50
2024/01/08 13:51:18;;;;;;;15.00;6.28;;;;;;;;;;5014765;28;20067;-57
2024/01/08 13:53:43;;;;;;;17.40;7.07;;;;;;;;;;5014007;28;22016;-56
2024/01/08 13:56:08;;;;;;;18.90;9.20;;;;;;;;;;5012697;28;20060;-53
2024/01/08 13:58:34;;;;;;;17.23;7.75;;;;;;;;;;5015917;28;20032;-56
2024/01/08 14:00:59;;;;;;;15.98;7.75;;;;;;;;;;5013176;28;20774;-53
2024/01/08 14:03:24;;;;;;;14.77;6.65;;;;;;;;;;5014126;28;20035;-56
2024/01/08 14:05:51;;;;;;;15.30;6.93;;;;;;;;;;5013287;28;20107;-58
2024/01/08 14:08:17;;;;;;;19.15;8.02;;;;;;;;;;5010752;28;20029;-59
2024/01/08 14:10:42;;;;;;;13.95;6.35;;;;;;;;;;5011996;28;20091;-56
2024/01/08 14:13:07;;;;;;;17.25;7.40;;;;;;;;;;5012584;28;20020;-56
2024/01/08 14:15:33;;;;;;;19.00;7.15;;;;;;;;;;5010682;28;20550;-59
2024/01/08 14:17:59;;;;;;;13.10;6.13;;;;;;;;;;5013768;28;20426;-56
2024/01/08 14:20:25;;;;;;;19.08;7.07;;;;;;;;;;5010941;28;20041;-57